Time;durP1;ratioP1;P1;durP2;ratioP2;P2;SDS_P1;SDS_P2;PMS_P1;PMS_P2;Temp;Humidity;BMP_temperature;BMP_pressure;BME280_temperature;BME280_humidity;BME280_pressure;Samples;Min_cycle;Max_cycle;Signal;HPM_P1;HPM_P2
2021/09/21 00:00:53;;;;;;;8.50;3.30;;;;;;;9.95;70.21;100694.75;126363;1099;104223;-80
2021/09/21 00:03:23;;;;;;;5.13;3.07;;;;;;;9.93;70.11;100693.80;126308;1099;104351;-78
2021/09/21 00:05:54;;;;;;;3.93;2.80;;;;;;;9.92;70.51;100702.48;126309;1099;104264;-78
2021/09/21 00:08:27;;;;;;;5.60;3.23;;;;;;;9.90;70.88;100706.78;126339;1098;104198;-79
2021/09/21 00:10:58;;;;;;;4.53;2.73;;;;;;;9.90;70.96;100707.66;126334;1099;104149;-79
2021/09/21 00:13:30;;;;;;;6.10;2.90;;;;;;;9.88;71.05;100716.31;126344;1098;104217;-78
2021/09/21 00:16:02;;;;;;;4.03;2.80;;;;;;;9.86;71.08;100712.71;126260;1099;104188;-79
2021/09/21 00:18:33;;;;;;;3.73;2.57;;;;;;;9.83;71.06;100715.20;126252;1099;104229;-78
2021/09/21 00:21:04;;;;;;;4.30;2.53;;;;;;;9.79;71.01;100715.92;126373;1099;104153;-79
2021/09/21 00:23:35;;;;;;;3.83;2.57;;;;;;;9.78;71.18;100725.48;126359;1097;104143;-78
2021/09/21 00:26:05;;;;;;;4.15;2.20;;;;;;;9.77;70.38;100728.05;126304;1099;104137;-78
2021/09/21 00:28:36;;;;;;;6.47;2.53;;;;;;;9.75;70.92;100730.59;126342;1099;104153;-80
2021/09/21 00:31:09;;;;;;;3.13;2.40;;;;;;;9.74;70.62;100730.53;126298;1099;104146;-79
2021/09/21 00:33:48;;;;;;;5.33;2.77;;;;;;;9.71;70.50;100729.58;126382;1099;104134;-79
2021/09/21 00:36:19;;;;;;;4.20;2.80;;;;;;;9.66;70.37;100728.50;126270;1099;104284;-78
2021/09/21 00:38:50;;;;;;;3.10;2.35;;;;;;;9.64;71.43;100730.14;126338;1099;104242;-78
2021/09/21 00:41:20;;;;;;;2.80;2.30;;;;;;;9.60;71.31;100727.31;126312;1099;104200;-77
2021/09/21 00:43:51;;;;;;;4.57;2.43;;;;;;;9.57;71.63;100720.24;126318;1097;104248;-78
2021/09/21 00:46:21;;;;;;;3.80;2.47;;;;;;;9.54;71.04;100725.35;126307;1098;104146;-78
2021/09/21 00:48:52;;;;;;;3.50;2.63;;;;;;;9.50;71.53;100733.89;126339;1099;104139;-78
2021/09/21 00:51:24;;;;;;;3.40;2.50;;;;;;;9.47;71.69;100728.52;126365;1099;104264;-79
2021/09/21 00:53:55;;;;;;;4.53;2.37;;;;;;;9.44;71.18;100742.40;126338;1099;104405;-79
2021/09/21 00:56:26;;;;;;;3.97;2.50;;;;;;;9.40;71.29;100734.34;126305;1099;104175;-79
2021/09/21 00:58:56;;;;;;;2.90;2.50;;;;;;;9.34;71.00;100738.45;126294;1099;104213;-79
2021/09/21 01:01:27;;;;;;;3.67;2.60;;;;;;;9.30;71.24;100739.17;126294;1099;104147;-78
2021/09/21 01:03:57;;;;;;;4.60;2.60;;;;;;;9.25;71.98;100729.30;126370;1099;104155;-79
2021/09/21 01:06:28;;;;;;;5.77;2.73;;;;;;;9.21;71.29;100737.83;126401;1099;104149;-79
2021/09/21 01:08:59;;;;;;;3.80;2.45;;;;;;;9.14;71.06;100734.94;126234;1098;104377;-80
2021/09/21 01:11:30;;;;;;;4.70;2.63;;;;;;;9.11;71.87;100728.67;126335;1098;101829;-80
2021/09/21 01:14:01;;;;;;;3.97;2.90;;;;;;;9.07;71.62;100737.20;126329;1099;104287;-79
2021/09/21 01:16:32;;;;;;;5.23;2.97;;;;;;;9.06;71.34;100748.53;126339;1099;104251;-80
2021/09/21 01:19:02;;;;;;;3.70;2.85;;;;;;;9.02;71.39;100742.23;126262;1097;104156;-80
2021/09/21 01:21:33;;;;;;;5.80;2.93;;;;;;;8.96;72.16;100747.19;126330;1099;104313;-78
2021/09/21 01:24:04;;;;;;;5.33;2.90;;;;;;;8.91;71.63;100743.47;126365;1099;104158;-79
2021/09/21 01:26:35;;;;;;;5.13;3.00;;;;;;;8.88;71.96;100738.09;126354;1099;104203;-79
2021/09/21 01:29:06;;;;;;;5.75;3.20;;;;;;;8.85;71.59;100743.18;126330;1099;104225;-80
2021/09/21 01:31:39;;;;;;;5.40;3.13;;;;;;;8.81;72.70;100748.27;126384;1099;104152;-78
2021/09/21 01:34:10;;;;;;;7.23;3.40;;;;;;;8.76;72.04;100743.67;126291;1099;104761;-79
2021/09/21 01:36:41;;;;;;;6.30;3.30;;;;;;;8.70;72.12;100746.88;126325;1099;104251;-79
2021/09/21 01:39:11;;;;;;;6.47;3.37;;;;;;;8.66;72.00;100741.44;126224;1099;104246;-80
2021/09/21 01:41:42;;;;;;;6.43;3.33;;;;;;;8.61;72.05;100747.33;126372;1099;104178;-80
2021/09/21 01:44:15;;;;;;;5.95;3.35;;;;;;;8.60;72.70;100753.41;126319;1098;104207;-79
2021/09/21 01:46:50;;;;;;;5.42;3.22;;;;;;;8.57;71.80;100755.87;126320;1099;104162;-79
2021/09/21 01:49:21;;;;;;;5.00;3.53;;;;;;;8.53;72.58;100753.92;126321;1099;104146;-79
2021/09/21 01:51:58;;;;;;;7.07;3.80;;;;;;;8.50;72.42;100751.16;126334;1099;104259;-78
2021/09/21 01:54:42;;;;;;;7.37;3.77;;;;;;;8.45;72.68;100755.28;126378;1099;104175;-80
2021/09/21 01:59:55;;;;;;;7.40;3.57;;;;;;;8.37;72.74;100749.65;126292;1099;104322;-79
2021/09/21 02:02:26;;;;;;;7.07;3.80;;;;;;;8.35;72.94;100755.61;126299;1099;104711;-77
2021/09/21 02:04:57;;;;;;;7.67;3.67;;;;;;;8.31;72.58;100753.70;126350;1099;104187;-79
2021/09/21 02:07:27;;;;;;;7.77;4.03;;;;;;;8.28;72.98;100757.05;126350;1099;104175;-79
2021/09/21 02:09:58;;;;;;;4.80;3.30;;;;;;;8.25;73.09;100749.05;126277;1099;104251;-78
2021/09/21 02:12:29;;;;;;;7.27;3.90;;;;;;;8.22;72.78;100755.02;126358;1099;104248;-80
2021/09/21 02:15:01;;;;;;;6.63;3.63;;;;;;;8.20;73.35;100756.67;126308;1099;104165;-80
2021/09/21 02:17:31;;;;;;;7.47;3.80;;;;;;;8.17;73.73;100758.24;126338;1098;104264;-79
2021/09/21 02:20:02;;;;;;;5.97;3.53;;;;;;;8.13;73.76;100762.40;126311;1098;104190;-79
2021/09/21 02:22:33;;;;;;;7.67;3.80;;;;;;;8.11;73.66;100761.44;126339;1099;104294;-81
2021/09/21 02:25:04;;;;;;;5.63;3.53;;;;;;;8.09;73.43;100752.63;126266;1099;104169;-78
2021/09/21 02:27:34;;;;;;;10.97;4.10;;;;;;;8.09;73.67;100760.47;126367;1099;104229;-80
2021/09/21 02:30:05;;;;;;;6.53;3.57;;;;;;;8.05;73.34;100759.40;126259;1099;104191;-80
2021/09/21 02:32:36;;;;;;;10.60;3.70;;;;;;;8.04;73.34;100761.94;126349;1099;104251;-79
2021/09/21 02:35:08;;;;;;;7.00;3.90;;;;;;;8.01;73.56;100769.63;126367;1099;104595;-79
2021/09/21 02:37:38;;;;;;;6.90;3.87;;;;;;;7.97;73.16;100767.70;126335;1099;104274;-79
2021/09/21 02:40:10;;;;;;;8.30;3.63;;;;;;;7.95;73.48;100775.45;126323;1099;104152;-78
2021/09/21 02:42:41;;;;;;;7.30;3.93;;;;;;;7.91;74.02;100770.89;126288;1099;104175;-79
2021/09/21 02:45:13;;;;;;;9.03;4.00;;;;;;;7.88;73.25;100775.95;126362;1099;104255;-80
2021/09/21 02:47:44;;;;;;;8.70;4.03;;;;;;;7.88;74.10;100786.41;126335;1099;104290;-79
2021/09/21 02:50:14;;;;;;;8.37;3.70;;;;;;;7.88;73.61;100781.18;126259;1099;105499;-79
2021/09/21 02:52:45;;;;;;;5.43;3.20;;;;;;;7.87;73.34;100790.75;126308;1099;104163;-79
2021/09/21 02:55:17;;;;;;;7.77;3.50;;;;;;;7.85;74.67;100787.17;126335;1099;104245;-77
2021/09/21 02:57:48;;;;;;;5.97;3.60;;;;;;;7.84;74.50;100798.42;126364;1098;104195;-78
2021/09/21 03:00:23;;;;;;;7.83;3.83;;;;;;;7.83;74.09;100800.96;126289;1099;104156;-78
2021/09/21 03:02:56;;;;;;;6.97;3.63;;;;;;;7.81;74.33;100793.05;126310;1099;104165;-79
2021/09/21 03:05:39;;;;;;;5.40;3.50;;;;;;;7.80;74.48;100801.69;126269;1099;104162;-78
2021/09/21 03:08:14;;;;;;;7.07;3.70;;;;;;;7.78;74.05;100800.72;126173;1099;105730;-78
2021/09/21 03:11:04;;;;;;;6.95;3.58;;;;;;;7.76;74.12;100801.45;126153;1099;104317;-78
2021/09/21 03:19:17;;;;;;;4.93;3.30;;;;;;;7.72;74.18;100795.18;126166;1099;104145;-78
2021/09/21 03:22:08;;;;;;;8.43;4.13;;;;;;;7.71;74.54;100798.59;126083;1098;111021;-79
2021/09/21 03:24:39;;;;;;;7.80;3.80;;;;;;;7.69;74.75;100795.02;126231;1099;104143;-79
2021/09/21 03:27:10;;;;;;;6.23;3.83;;;;;;;7.69;74.44;100795.02;126226;1099;104534;-79
2021/09/21 03:29:41;;;;;;;9.93;4.20;;;;;;;7.67;74.31;100804.50;126187;1099;104427;-80
2021/09/21 03:32:12;;;;;;;10.17;4.27;;;;;;;7.66;74.72;100797.47;126209;1099;105232;-78
2021/09/21 03:34:43;;;;;;;7.63;4.00;;;;;;;7.65;74.31;100801.81;126195;1099;104300;-79
2021/09/21 03:37:13;;;;;;;9.27;4.23;;;;;;;7.64;75.25;100809.56;125369;1099;104319;-79
2021/09/21 03:39:44;;;;;;;6.27;3.87;;;;;;;7.62;75.19;100812.09;126263;1099;104309;-79
2021/09/21 03:42:15;;;;;;;10.43;4.40;;;;;;;7.60;75.41;100812.81;126284;1099;104281;-81
2021/09/21 03:44:46;;;;;;;9.53;4.63;;;;;;;7.61;75.42;100815.52;126381;1098;104159;-80
2021/09/21 03:47:16;;;;;;;7.73;4.53;;;;;;;7.60;75.40;100818.05;126344;1099;104185;-81
2021/09/21 03:49:47;;;;;;;9.17;4.40;;;;;;;7.60;75.08;100813.70;126349;1099;104146;-80
2021/09/21 03:52:18;;;;;;;10.33;5.10;;;;;;;7.62;75.72;100819.02;126282;1099;104293;-80
2021/09/21 03:54:49;;;;;;;9.47;4.67;;;;;;;7.64;75.09;100820.02;126346;1099;104268;-79
2021/09/21 03:57:19;;;;;;;9.13;4.63;;;;;;;7.64;75.68;100817.40;126338;1099;104152;-81
2021/09/21 03:59:50;;;;;;;9.33;4.63;;;;;;;7.67;75.07;100822.78;126331;1099;104275;-80
2021/09/21 04:02:21;;;;;;;8.90;4.80;;;;;;;7.70;75.17;100828.17;126263;1099;104268;-78
2021/09/21 04:04:51;;;;;;;7.30;4.30;;;;;;;7.72;75.05;100824.80;126283;1099;104172;-80
2021/09/21 04:07:22;;;;;;;9.90;4.97;;;;;;;7.74;75.35;100828.41;126196;1099;104219;-80
2021/09/21 04:09:52;;;;;;;9.37;4.43;;;;;;;7.79;75.38;100835.56;126256;1099;104201;-79
2021/09/21 04:12:23;;;;;;;9.50;4.90;;;;;;;7.83;75.23;100830.59;126294;1099;104150;-80
2021/09/21 04:14:54;;;;;;;12.07;4.90;;;;;;;7.84;75.08;100829.78;126344;1099;104162;-80
2021/09/21 04:17:24;;;;;;;10.47;4.90;;;;;;;7.86;75.10;100841.20;126398;1098;104275;-80
2021/09/21 04:19:56;;;;;;;8.57;4.50;;;;;;;7.87;75.30;100842.11;126281;1099;104355;-79
2021/09/21 04:22:28;;;;;;;11.83;4.97;;;;;;;7.87;75.17;100848.23;126244;1099;104155;-79
2021/09/21 04:24:59;;;;;;;8.13;4.83;;;;;;;7.90;74.71;100842.28;126300;1099;104271;-80
2021/09/21 04:27:30;;;;;;;9.37;4.97;;;;;;;7.94;75.21;100845.94;126341;1097;104223;-80
2021/09/21 04:30:01;;;;;;;9.60;4.70;;;;;;;7.97;75.46;100853.93;126349;1099;104149;-78
2021/09/21 04:32:32;;;;;;;11.43;5.13;;;;;;;7.99;75.36;100849.67;126135;1099;104472;-77
2021/09/21 04:35:03;;;;;;;11.13;5.93;;;;;;;8.03;75.77;100854.25;126051;1099;104173;-76
2021/09/21 04:37:34;;;;;;;9.47;4.90;;;;;;;8.09;75.46;100854.57;126264;1099;104217;-79
2021/09/21 04:40:06;;;;;;;8.50;4.60;;;;;;;8.14;74.98;100853.08;126313;1099;104203;-77
2021/09/21 04:42:37;;;;;;;10.23;4.97;;;;;;;8.22;75.13;100858.70;126277;1099;104251;-78
2021/09/21 04:45:09;;;;;;;9.73;4.90;;;;;;;8.27;75.30;100849.36;126286;1099;104453;-79
2021/09/21 04:47:39;;;;;;;9.83;5.07;;;;;;;8.31;75.04;100861.78;126258;1099;104172;-76
2021/09/21 04:50:11;;;;;;;8.23;4.70;;;;;;;8.36;75.35;100877.70;126239;1099;104156;-79
2021/09/21 04:52:42;;;;;;;7.90;4.87;;;;;;;8.39;75.18;100859.55;126323;1099;104588;-79
2021/09/21 04:55:15;;;;;;;10.23;4.67;;;;;;;8.45;74.81;100859.89;126295;1099;104181;-79
2021/09/21 04:57:47;;;;;;;9.10;4.80;;;;;;;8.50;75.19;100868.86;126151;1099;104605;-78
2021/09/21 05:00:19;;;;;;;8.43;4.50;;;;;;;8.55;75.13;100875.20;126214;1099;104229;-77
2021/09/21 05:02:49;;;;;;;8.33;4.40;;;;;;;8.59;75.06;100881.51;126158;1099;104175;-78
2021/09/21 05:05:22;;;;;;;8.57;4.70;;;;;;;8.61;74.80;100875.51;126260;1099;104165;-78
2021/09/21 05:07:53;;;;;;;14.00;4.90;;;;;;;8.62;74.26;100876.43;126185;1099;104172;-78
2021/09/21 05:10:25;;;;;;;8.60;4.55;;;;;;;8.60;74.71;100884.20;126141;1099;104284;-78
2021/09/21 05:12:56;;;;;;;9.47;4.63;;;;;;;8.63;74.39;100886.97;126156;1099;104188;-78
2021/09/21 05:15:26;;;;;;;8.47;5.00;;;;;;;8.67;74.64;100892.36;126262;1099;104172;-77
2021/09/21 05:17:57;;;;;;;9.60;4.80;;;;;;;8.70;74.32;100893.39;126106;1099;104140;-77
2021/09/21 05:20:28;;;;;;;10.33;4.77;;;;;;;8.77;74.25;100897.20;126073;1099;104195;-77
2021/09/21 05:23:01;;;;;;;9.10;4.30;;;;;;;8.84;74.52;100896.69;126117;1099;104152;-79
2021/09/21 05:25:31;;;;;;;11.30;4.70;;;;;;;8.96;74.56;100902.53;126171;1099;104251;-78
2021/09/21 05:28:02;;;;;;;8.33;4.83;;;;;;;9.04;74.08;100899.36;126122;1097;104165;-78
2021/09/21 05:30:33;;;;;;;8.93;4.33;;;;;;;9.07;73.37;100913.52;126099;1099;104140;-78
2021/09/21 05:33:04;;;;;;;10.47;4.10;;;;;;;9.07;73.78;100917.84;126035;1099;104262;-78
2021/09/21 05:35:35;;;;;;;10.60;4.33;;;;;;;9.06;73.62;100916.06;126130;1099;104319;-78
2021/09/21 05:38:08;;;;;;;8.70;4.40;;;;;;;9.05;73.87;100919.49;126014;1097;104377;-77
2021/09/21 05:40:40;;;;;;;8.50;4.20;;;;;;;9.02;73.42;100919.34;125988;1099;104223;-78
2021/09/21 05:43:13;;;;;;;10.80;4.30;;;;;;;9.00;73.01;100914.03;125965;1097;104242;-79
2021/09/21 05:45:44;;;;;;;7.03;3.60;;;;;;;8.98;73.41;100913.07;126183;1099;104216;-78
2021/09/21 05:48:15;;;;;;;7.57;3.90;;;;;;;9.00;73.15;100921.88;126134;1099;104243;-79
2021/09/21 05:50:48;;;;;;;9.40;4.10;;;;;;;9.00;72.91;100919.27;126025;1099;104170;-79
2021/09/21 05:53:26;;;;;;;7.10;3.90;;;;;;;9.03;72.80;100924.66;126084;1096;104169;-78
2021/09/21 05:56:02;;;;;;;7.40;4.07;;;;;;;9.06;73.38;100923.91;126032;1099;104126;-79
2021/09/21 05:58:49;;;;;;;8.20;3.60;;;;;;;9.08;73.05;100925.77;126124;1098;104330;-79
2021/09/21 06:01:21;;;;;;;7.40;3.93;;;;;;;9.10;72.90;100917.98;126032;1099;104200;-78
2021/09/21 06:03:53;;;;;;;8.23;3.60;;;;;;;9.15;72.91;100919.13;126111;1097;104210;-79
2021/09/21 06:06:27;;;;;;;6.37;3.70;;;;;;;9.21;73.34;100914.19;125937;1098;104239;-81
2021/09/21 06:09:03;;;;;;;5.77;3.63;;;;;;;9.29;72.85;100914.55;126126;1099;102470;-80
2021/09/21 06:11:36;;;;;;;;;;;;;;;9.42;72.81;100908.16;126075;1099;104368;-80
2021/09/21 06:14:09;;;;;;;12.10;3.83;;;;;;;9.48;72.88;100911.95;125163;1099;104438;-79
2021/09/21 06:16:42;;;;;;;9.63;3.97;;;;;;;9.54;72.49;100912.23;125965;1099;104315;-79
2021/09/21 06:19:19;;;;;;;9.53;3.90;;;;;;;9.61;72.34;100913.41;125965;1099;104288;-79
2021/09/21 06:21:53;;;;;;;13.10;4.03;;;;;;;9.73;72.97;100920.06;125318;1099;104283;-81
2021/09/21 06:24:32;;;;;;;6.37;3.50;;;;;;;9.85;72.83;100918.00;125235;1099;104223;-79
2021/09/21 06:27:07;;;;;;;7.67;3.70;;;;;;;9.94;72.16;100915.80;125854;1099;104179;-78
2021/09/21 06:29:42;;;;;;;6.27;3.67;;;;;;;10.02;72.28;100908.25;126055;1099;104472;-79
2021/09/21 06:32:14;;;;;;;7.53;3.90;;;;;;;10.07;72.32;100910.25;125311;1099;104335;-79
2021/09/21 06:34:47;;;;;;;;;;;;;;;10.11;71.57;100910.39;126015;1099;104184;-78
2021/09/21 06:37:18;;;;;;;7.83;4.10;;;;;;;10.14;71.94;100906.16;125873;1098;104303;-77
2021/09/21 06:39:51;;;;;;;5.13;3.40;;;;;;;10.11;70.79;100913.01;126024;1099;104242;-77
2021/09/21 06:42:24;;;;;;;5.93;3.37;;;;;;;10.10;70.76;100909.50;126040;1099;104319;-78
2021/09/21 06:44:58;;;;;;;5.58;3.25;;;;;;;10.06;69.50;100908.45;126118;1099;104236;-81
2021/09/21 06:47:33;;;;;;;5.87;3.20;;;;;;;10.02;70.25;100927.52;125987;1099;104201;-78
2021/09/21 06:50:08;;;;;;;6.78;3.12;;;;;;;10.01;70.43;100920.47;125975;1099;104139;-78
2021/09/21 06:52:41;;;;;;;8.20;3.20;;;;;;;10.02;70.17;100909.16;126135;1099;104300;-76
2021/09/21 06:55:15;;;;;;;7.17;3.70;;;;;;;10.02;70.19;100914.41;126075;1099;104235;-78
2021/09/21 06:57:55;;;;;;;5.53;3.37;;;;;;;10.10;70.13;100919.99;126117;1099;104168;-78
2021/09/21 07:00:27;;;;;;;9.23;3.43;;;;;;;10.10;69.90;100925.23;126095;1099;104696;-79
2021/09/21 07:03:02;;;;;;;8.37;3.00;;;;;;;10.10;69.25;100912.13;126223;1099;104262;-80
2021/09/21 07:05:34;;;;;;;6.20;3.33;;;;;;;10.15;69.84;100914.95;126125;1097;105018;-80
2021/09/21 07:08:10;;;;;;;5.97;3.00;;;;;;;10.19;69.00;100922.10;126131;1099;104129;-80
2021/09/21 07:10:42;;;;;;;8.07;3.30;;;;;;;10.22;69.06;100914.37;126201;1099;104195;-80
2021/09/21 07:13:15;;;;;;;5.73;2.90;;;;;;;10.24;67.67;100920.60;126162;1099;104216;-80
2021/09/21 07:15:49;;;;;;;13.85;3.27;;;;;;;10.29;68.79;100926.05;126051;1099;104140;-79
2021/09/21 07:18:25;;;;;;;13.87;3.63;;;;;;;10.25;68.24;100920.67;126145;1099;104309;-79
2021/09/21 07:20:56;;;;;;;9.80;3.40;;;;;;;10.25;68.49;100922.38;126222;1099;104143;-80
2021/09/21 07:23:29;;;;;;;9.90;3.07;;;;;;;10.25;67.65;100925.91;126109;1099;104153;-81
2021/09/21 07:26:02;;;;;;;6.80;3.37;;;;;;;10.26;67.30;100922.44;125878;1099;104172;-80
2021/09/21 07:28:37;;;;;;;9.17;2.70;;;;;;;10.25;66.32;100927.62;126146;1099;102938;-80
2021/09/21 07:31:15;;;;;;;3.80;2.93;;;;;;;10.26;67.00;100924.17;125952;1099;102443;-81
2021/09/21 07:33:48;;;;;;;6.03;3.00;;;;;;;10.25;68.07;100922.38;126102;1099;104172;-82
2021/09/21 07:36:25;;;;;;;4.73;2.97;;;;;;;10.30;67.77;100928.73;125266;1099;104223;-81
2021/09/21 07:39:00;;;;;;;5.47;3.07;;;;;;;10.34;67.17;100919.30;125989;1099;104605;-79
2021/09/21 07:41:34;;;;;;;6.10;2.80;;;;;;;10.33;66.94;100930.61;125990;1099;104273;-78
2021/09/21 07:44:07;;;;;;;9.40;3.10;;;;;;;10.34;66.56;100932.41;125974;1099;104227;-78
2021/09/21 07:46:43;;;;;;;5.30;3.00;;;;;;;10.34;67.12;100917.56;125269;1099;104305;-80
2021/09/21 07:49:16;;;;;;;6.77;3.20;;;;;;;10.38;66.97;100915.98;126062;1099;104460;-80
2021/09/21 07:51:54;;;;;;;5.77;2.93;;;;;;;10.45;66.78;100925.89;125894;1099;104265;-81
2021/09/21 07:54:26;;;;;;;6.60;2.90;;;;;;;10.49;67.24;100927.83;125221;1099;104236;-80
2021/09/21 07:57:03;;;;;;;8.13;3.70;;;;;;;10.63;67.46;100917.00;125148;1099;104322;-80
2021/09/21 07:59:47;;;;;;;7.93;3.23;;;;;;;10.74;66.87;100927.14;126057;1099;104149;-78
2021/09/21 08:02:21;;;;;;;8.27;3.40;;;;;;;10.83;66.97;100920.47;126023;1099;104286;-77
2021/09/21 08:04:59;;;;;;;5.73;3.40;;;;;;;10.89;66.90;100921.64;126053;1099;104137;-78
2021/09/21 08:07:34;;;;;;;6.93;3.07;;;;;;;10.99;66.44;100909.77;125386;1098;104152;-79
2021/09/21 08:10:11;;;;;;;8.00;3.20;;;;;;;11.06;66.46;100911.79;126120;1099;104316;-80
2021/09/21 08:12:42;;;;;;;10.27;3.60;;;;;;;11.15;66.72;100913.91;125958;1099;104251;-80
2021/09/21 08:15:14;;;;;;;;;;;;;;;11.23;65.54;100907.21;125431;1099;104325;-81
2021/09/21 08:17:47;;;;;;;7.53;3.17;;;;;;;11.25;65.23;100921.33;125432;1099;104294;-81
2021/09/21 08:20:21;;;;;;;6.77;3.30;;;;;;;11.29;65.97;100911.83;125414;1099;104905;-79
2021/09/21 08:22:54;;;;;;;5.53;3.33;;;;;;;11.35;65.14;100914.69;125208;1102;104360;-81
2021/09/21 08:25:31;;;;;;;6.23;2.90;;;;;;;11.42;64.58;100919.36;125295;1102;104252;-80
2021/09/21 08:28:13;;;;;;;5.70;3.00;;;;;;;11.46;63.56;100913.37;125318;1099;104191;-80
2021/09/21 08:30:47;;;;;;;7.63;3.20;;;;;;;11.53;64.63;100900.47;125422;1099;104145;-81
2021/09/21 08:33:24;;;;;;;7.37;2.80;;;;;;;11.69;64.62;100902.85;125293;1102;104304;-80
2021/09/21 08:36:00;;;;;;;7.07;2.97;;;;;;;11.80;64.12;100900.63;125310;1100;104153;-80
2021/09/21 08:38:33;;;;;;;5.00;2.90;;;;;;;11.83;63.48;100890.22;126055;1099;104277;-79
2021/09/21 08:41:24;;;;;;;7.13;3.00;;;;;;;11.90;63.21;100888.70;126121;1099;104427;-80
2021/09/21 08:43:56;;;;;;;7.53;3.13;;;;;;;11.84;62.70;100887.65;125076;1102;104265;-79
2021/09/21 08:46:33;;;;;;;6.93;3.10;;;;;;;11.92;63.38;100881.75;125130;1100;104223;-82
2021/09/21 08:49:06;;;;;;;6.37;2.73;;;;;;;11.95;61.75;100887.16;125170;1102;104206;-80
2021/09/21 08:51:41;;;;;;;5.40;2.70;;;;;;;11.95;62.07;100880.19;125277;1102;104325;-82
2021/09/21 08:54:17;;;;;;;6.67;2.63;;;;;;;12.05;62.27;100890.17;125174;1099;104344;-81
2021/09/21 08:56:51;;;;;;;9.23;2.70;;;;;;;12.14;61.02;100884.36;125760;1099;105758;-78
2021/09/21 08:59:34;;;;;;;6.50;2.73;;;;;;;12.22;62.05;100888.15;125274;1102;104303;-80
2021/09/21 09:02:13;;;;;;;6.87;3.00;;;;;;;12.29;62.00;100880.47;125248;1099;104424;-80
2021/09/21 09:05:03;;;;;;;6.63;2.63;;;;;;;12.28;61.52;100890.11;125206;1102;104367;-79
2021/09/21 09:07:49;;;;;;;5.83;2.83;;;;;;;12.33;60.16;100883.27;125414;1099;104350;-80
2021/09/21 09:10:23;;;;;;;4.78;2.50;;;;;;;12.37;60.24;100885.17;125304;1099;104248;-80
2021/09/21 09:12:58;;;;;;;6.17;2.80;;;;;;;12.38;60.04;100884.30;126012;1099;105405;-79
2021/09/21 09:15:35;;;;;;;7.03;3.17;;;;;;;12.45;60.63;100884.52;125905;1099;104152;-80
2021/09/21 09:18:10;;;;;;;7.10;3.10;;;;;;;12.37;59.44;100884.25;125210;1099;104308;-79
2021/09/21 09:20:44;;;;;;;12.03;3.00;;;;;;;12.33;59.92;100892.91;125330;1099;104226;-79
2021/09/21 09:23:26;;;;;;;;;;;;;;;;;;;;;
2021/09/21 09:26:12;;;;;;;7.27;3.10;;;;;;;12.32;59.66;100893.73;125249;1099;104137;-79
2021/09/21 09:28:47;;;;;;;9.90;3.57;;;;;;;12.29;58.94;100896.26;125243;1099;104437;-81
2021/09/21 09:31:31;;;;;;;6.20;3.83;;;;;;;12.28;59.28;100898.00;125327;1099;104169;-80
2021/09/21 09:34:25;;;;;;;8.83;4.17;;;;;;;12.27;59.00;100883.05;125270;1099;104354;-79
2021/09/21 09:37:08;;;;;;;9.40;4.20;;;;;;;12.28;58.85;100907.61;125343;1099;104398;-80
2021/09/21 09:39:41;;;;;;;7.83;4.23;;;;;;;12.28;58.75;100897.09;125247;1102;118838;-81
2021/09/21 09:42:23;;;;;;;8.65;4.65;;;;;;;12.36;57.93;100893.01;125240;1100;104326;-81
2021/09/21 09:45:03;;;;;;;13.90;4.50;;;;;;;12.47;56.73;100902.16;125317;1099;104434;-81
2021/09/21 09:47:47;;;;;;;14.53;4.90;;;;;;;12.65;57.06;100898.36;125245;1099;104293;-79
2021/09/21 09:50:27;;;;;;;10.53;5.03;;;;;;;12.84;56.12;100916.58;125347;1099;104156;-80
2021/09/21 09:53:15;;;;;;;11.80;5.03;;;;;;;12.96;56.80;100894.98;126324;1099;104301;-81
2021/09/21 09:55:54;;;;;;;11.57;5.00;;;;;;;13.19;57.60;100895.72;126228;1099;104631;-79
2021/09/21 09:58:28;;;;;;;10.83;5.27;;;;;;;13.23;56.02;100887.08;126180;1099;104140;-80
2021/09/21 10:01:02;;;;;;;8.77;4.87;;;;;;;13.28;56.31;100900.40;126015;1099;104300;-81
2021/09/21 10:03:37;;;;;;;10.03;5.30;;;;;;;13.34;57.35;100891.80;125780;1099;104210;-78
2021/09/21 10:06:10;;;;;;;8.93;4.97;;;;;;;13.56;56.07;100894.25;125773;1099;104158;-77
2021/09/21 10:08:41;;;;;;;11.30;5.50;;;;;;;13.59;53.17;100890.83;125756;1099;104472;-77
2021/09/21 10:11:14;;;;;;;15.57;6.93;;;;;;;13.48;55.60;100887.86;125829;1099;105341;-78
2021/09/21 10:13:49;;;;;;;12.60;5.10;;;;;;;13.62;55.68;100891.80;125818;1099;104274;-77
2021/09/21 10:16:26;;;;;;;15.40;5.50;;;;;;;13.56;54.55;100881.07;125884;1099;104182;-77
2021/09/21 10:19:03;;;;;;;12.97;5.60;;;;;;;13.48;54.91;100896.66;125732;1098;104252;-76
2021/09/21 10:21:36;;;;;;;13.03;5.70;;;;;;;13.46;54.57;100895.73;125902;1098;105295;-76
2021/09/21 10:24:11;;;;;;;9.23;5.43;;;;;;;13.54;55.05;100882.78;125807;1099;104226;-77
2021/09/21 10:26:45;;;;;;;10.67;5.00;;;;;;;13.55;53.91;100900.36;126158;1099;104243;-77
2021/09/21 10:29:29;;;;;;;12.67;6.13;;;;;;;13.53;53.38;100896.80;125978;1099;105748;-79
2021/09/21 10:32:00;;;;;;;9.00;5.20;;;;;;;13.62;52.88;100888.28;126056;1099;104287;-77
2021/09/21 10:34:41;;;;;;;13.17;5.50;;;;;;;13.65;53.39;100885.73;126101;1099;104210;-78
2021/09/21 10:37:13;;;;;;;12.23;5.30;;;;;;;13.58;52.41;100933.84;126219;1099;104214;-79
2021/09/21 10:39:48;;;;;;;10.80;5.20;;;;;;;13.55;53.27;100887.18;126064;1099;104228;-79
2021/09/21 10:42:24;;;;;;;14.63;5.23;;;;;;;13.50;51.99;100886.16;126160;1099;104176;-79
2021/09/21 10:45:01;;;;;;;10.63;5.40;;;;;;;13.51;51.20;100910.77;126003;1099;104406;-79
2021/09/21 10:47:39;;;;;;;9.13;5.30;;;;;;;13.58;51.63;100889.03;126159;1099;104322;-79
2021/09/21 10:50:15;;;;;;;10.33;5.10;;;;;;;13.59;51.86;100901.37;126143;1099;104166;-79
2021/09/21 10:52:49;;;;;;;12.07;5.40;;;;;;;13.73;51.87;100897.39;125937;1098;104169;-77
2021/09/21 10:55:25;;;;;;;9.20;5.10;;;;;;;13.78;51.71;100893.12;125996;1099;104201;-78
2021/09/21 10:58:03;;;;;;;9.50;5.10;;;;;;;13.87;51.62;100894.23;125354;1099;104290;-80
2021/09/21 11:00:38;;;;;;;10.57;4.87;;;;;;;13.83;50.42;100895.91;125282;1099;104165;-82
2021/09/21 11:03:15;;;;;;;11.87;5.40;;;;;;;13.72;51.02;100894.70;125295;1100;104626;-81
2021/09/21 11:05:53;;;;;;;10.30;5.03;;;;;;;13.68;51.54;100903.37;125325;1099;104172;-82
2021/09/21 11:08:31;;;;;;;10.10;4.83;;;;;;;13.58;51.07;100889.91;125412;1099;104768;-81
2021/09/21 11:11:08;;;;;;;15.40;5.40;;;;;;;13.56;51.71;100898.64;125879;1099;104277;-80
2021/09/21 11:13:45;;;;;;;12.23;5.37;;;;;;;13.51;50.22;100898.50;126027;1099;104325;-81
2021/09/21 11:16:30;;;;;;;10.43;5.13;;;;;;;13.59;51.66;100896.98;126054;1099;104150;-81
2021/09/21 11:19:09;;;;;;;11.37;5.30;;;;;;;13.62;50.40;100901.47;125405;1099;104220;-81
2021/09/21 11:21:42;;;;;;;11.87;5.30;;;;;;;13.60;50.41;100911.97;125372;1099;104159;-83
2021/09/21 11:24:14;;;;;;;15.50;5.07;;;;;;;13.62;50.32;100897.08;126033;1099;104146;-79
2021/09/21 11:26:57;;;;;;;17.07;5.27;;;;;;;13.63;50.23;100897.95;125369;1099;104157;-79
2021/09/21 11:29:29;;;;;;;9.80;4.83;;;;;;;13.59;49.55;100911.92;125518;1099;104136;-80
2021/09/21 11:32:15;;;;;;;11.03;4.90;;;;;;;13.58;50.58;100910.12;126073;1099;104149;-80
2021/09/21 11:35:01;;;;;;;15.23;5.53;;;;;;;13.55;51.17;100915.30;125286;1099;104175;-80
2021/09/21 11:37:42;;;;;;;12.57;5.90;;;;;;;13.48;50.23;100912.48;125302;1099;104219;-80
2021/09/21 11:40:28;;;;;;;11.07;5.07;;;;;;;13.43;49.68;100921.08;125115;1099;104168;-82
2021/09/21 11:43:02;;;;;;;9.60;5.43;;;;;;;13.38;49.88;100925.33;126036;1099;104152;-79
2021/09/21 11:45:35;;;;;;;11.78;5.50;;;;;;;13.39;50.00;100917.47;125316;1099;104309;-79
2021/09/21 11:48:09;;;;;;;12.68;5.65;;;;;;;13.55;50.28;100916.19;126113;1099;104146;-80
2021/09/21 11:50:41;;;;;;;;;;;;;;;13.68;49.18;100917.47;125880;1099;104354;-80
2021/09/21 11:53:17;;;;;;;12.40;5.27;;;;;;;13.70;49.37;100909.56;125262;1099;104246;-79